Time,TemperatureF,DewpointF,PressureIn,WindDirection,WindDirectionDegrees,WindSpeedMPH,WindSpeedGustMPH,Humidity,HourlyPrecipIn,Conditions,Clouds,dailyrainin,SolarRadiationWatts/m^2,SoftwareType,DateUTC
2013-04-04 00:04:00,61.3,28.8,29.94,ENE,67,1.0,2.0,29,0.00,,,0.00,0,LWC V2.00 B727,2013-04-04 07:04:00,
2013-04-04 00:09:00,62.0,28.5,29.94,ENE,67,0.0,3.0,28,0.00,,,0.00,0,LWC V2.00 B727,2013-04-04 07:09:00,
2013-04-04 00:14:00,61.4,28.9,29.94,ENE,67,0.0,0.0,29,0.00,,,0.00,0,LWC V2.00 B727,2013-04-04 07:14:00,
2013-04-04 00:19:00,61.1,28.6,29.94,ENE,67,2.0,4.0,29,0.00,,,0.00,0,LWC V2.00 B727,2013-04-04 07:19:00,
2013-04-04 00:24:00,61.7,29.1,29.94,ENE,67,2.0,3.0,29,0.00,,,0.00,0,LWC V2.00 B727,2013-04-04 07:24:00,
2013-04-04 00:29:00,61.7,29.1,29.93,ENE,59,4.0,7.0,29,0.00,,,0.00,0,LWC V2.00 B727,2013-04-04 07:29:00,
2013-04-04 00:34:00,61.1,29.4,29.93,ENE,67,5.0,5.0,30,0.00,,,0.00,0,LWC V2.00 B727,2013-04-04 07:34:00,
2013-04-04 00:39:00,60.6,29.0,29.93,ENE,61,4.0,5.0,30,0.00,,,0.00,0,LWC V2.00 B727,2013-04-04 07:39:00,
2013-04-04 00:44:00,60.6,29.0,29.93,ENE,60,2.0,4.0,30,0.00,,,0.00,0,LWC V2.00 B727,2013-04-04 07:44:00,
2013-04-04 00:49:00,61.0,28.5,29.93,ENE,60,0.0,3.0,29,0.00,,,0.00,0,LWC V2.00 B727,2013-04-04 07:49:00,
2013-04-04 00:54:00,61.5,29.0,29.93,ENE,60,1.0,3.0,29,0.00,,,0.00,0,LWC V2.00 B727,2013-04-04 07:54:00,
2013-04-04 00:59:00,61.1,28.6,29.93,ENE,60,0.0,3.0,29,0.00,,,0.00,0,LWC V2.00 B727,2013-04-04 07:59:00,
2013-04-04 01:04:00,60.6,29.0,29.93,ENE,60,0.0,0.0,30,0.00,,,0.00,0,LWC V2.00 B727,2013-04-04 08:04:00,
2013-04-04 01:09:00,60.5,28.9,29.94,ENE,60,0.0,2.0,30,0.00,,,0.00,0,LWC V2.00 B727,2013-04-04 08:09:00,
2013-04-04 01:14:00,60.1,28.6,29.93,ENE,60,0.0,0.0,30,0.00,,,0.00,0,LWC V2.00 B727,2013-04-04 08:14:00,
2013-04-04 01:19:00,59.8,29.1,29.94,ENE,60,0.0,0.0,31,0.00,,,0.00,0,LWC V2.00 B727,2013-04-04 08:19:00,
2013-04-04 01:24:00,59.3,29.4,29.93,ENE,60,0.0,0.0,32,0.00,,,0.00,0,LWC V2.00 B727,2013-04-04 08:24:00,
2013-04-04 01:29:00,57.5,29.4,29.93,ENE,60,0.0,1.0,34,0.00,,,0.00,0,LWC V2.00 B727,2013-04-04 08:29:00,
2013-04-04 01:34:00,55.6,29.7,29.94,ENE,60,0.0,1.0,37,0.00,,,0.00,0,LWC V2.00 B727,2013-04-04 08:34:00,
2013-04-04 01:39:00,54.7,29.6,29.94,ENE,60,0.0,1.0,38,0.00,,,0.00,0,LWC V2.00 B727,2013-04-04 08:39:00,
2013-04-04 01:44:00,54.7,29.6,29.94,ENE,60,0.0,1.0,38,0.00,,,0.00,0,LWC V2.00 B727,2013-04-04 08:44:00,
2013-04-04 01:49:00,55.7,29.8,29.94,ENE,60,0.0,0.0,37,0.00,,,0.00,0,LWC V2.00 B727,2013-04-04 08:49:00,
2013-04-04 01:54:00,56.4,29.8,29.94,ENE,60,0.0,0.0,36,0.00,,,0.00,0,LWC V2.00 B727,2013-04-04 08:54:00,
2013-04-04 01:59:00,56.6,29.3,29.94,ENE,60,2.0,3.0,35,0.00,,,0.00,0,LWC V2.00 B727,2013-04-04 08:59:00,
2013-04-04 02:04:00,57.4,30.0,29.93,ENE,60,3.0,3.0,35,0.00,,,0.00,0,LWC V2.00 B727,2013-04-04 09:04:00,
2013-04-04 02:09:00,58.2,30.0,29.93,ENE,60,0.0,2.0,34,0.00,,,0.00,0,LWC V2.00 B727,2013-04-04 09:09:00,
2013-04-04 02:14:00,58.8,29.8,29.93,ENE,60,2.0,3.0,33,0.00,,,0.00,0,LWC V2.00 B727,2013-04-04 09:14:00,
2013-04-04 02:19:00,59.3,29.4,29.93,ENE,69,0.0,2.0,32,0.00,,,0.00,0,LWC V2.00 B727,2013-04-04 09:19:00,
2013-04-04 02:24:00,59.9,30.0,29.93,ENE,70,1.0,4.0,32,0.00,,,0.00,0,LWC V2.00 B727,2013-04-04 09:24:00,
2013-04-04 02:29:00,60.2,29.5,29.93,ENE,70,0.0,3.0,31,0.00,,,0.00,0,LWC V2.00 B727,2013-04-04 09:29:00,
2013-04-04 02:34:00,60.4,29.6,29.92,ENE,69,0.0,0.0,31,0.00,,,0.00,0,LWC V2.00 B727,2013-04-04 09:34:00,
2013-04-04 02:39:00,60.8,29.2,29.92,ENE,69,0.0,0.0,30,0.00,,,0.00,0,LWC V2.00 B727,2013-04-04 09:39:00,
2013-04-04 02:44:00,61.1,29.4,29.92,ENE,69,0.0,0.0,30,0.00,,,0.00,0,LWC V2.00 B727,2013-04-04 09:44:00,
2013-04-04 02:49:00,60.5,29.7,29.92,ENE,69,1.0,1.0,31,0.00,,,0.00,0,LWC V2.00 B727,2013-04-04 09:49:00,
2013-04-04 02:54:00,60.8,30.0,29.92,ENE,69,0.0,1.0,31,0.00,,,0.00,0,LWC V2.00 B727,2013-04-04 09:54:00,
2013-04-04 02:59:00,60.7,29.9,29.92,ENE,69,2.0,2.0,31,0.00,,,0.00,0,LWC V2.00 B727,2013-04-04 09:59:00,
2013-04-04 03:04:00,60.5,30.5,29.92,ENE,69,0.0,0.0,32,0.00,,,0.00,0,LWC V2.00 B727,2013-04-04 10:04:00,
2013-04-04 03:09:00,60.1,30.1,29.92,ENE,69,1.0,1.0,32,0.00,,,0.00,0,LWC V2.00 B727,2013-04-04 10:09:00,
2013-04-04 03:14:00,59.5,30.4,29.92,ENE,69,0.0,1.0,33,0.00,,,0.00,0,LWC V2.00 B727,2013-04-04 10:14:00,
2013-04-04 03:19:00,59.7,29.8,29.92,ENE,69,0.0,1.0,32,0.00,,,0.00,0,LWC V2.00 B727,2013-04-04 10:19:00,
2013-04-04 03:24:00,59.7,29.8,29.92,ENE,69,2.0,2.0,32,0.00,,,0.00,0,LWC V2.00 B727,2013-04-04 10:24:00,
2013-04-04 03:29:00,59.5,29.6,29.92,ENE,69,0.0,1.0,32,0.00,,,0.00,0,LWC V2.00 B727,2013-04-04 10:29:00,
2013-04-04 03:34:00,59.5,28.8,29.92,ENE,69,0.0,2.0,31,0.00,,,0.00,0,LWC V2.00 B727,2013-04-04 10:34:00,
2013-04-04 03:39:00,58.9,29.1,29.93,ENE,69,0.0,1.0,32,0.00,,,0.00,0,LWC V2.00 B727,2013-04-04 10:39:00,
2013-04-04 03:44:00,58.9,29.1,29.93,ENE,69,0.0,0.0,32,0.00,,,0.00,0,LWC V2.00 B727,2013-04-04 10:44:00,
2013-04-04 03:49:00,58.9,29.1,29.93,ENE,69,0.0,0.0,32,0.00,,,0.00,0,LWC V2.00 B727,2013-04-04 10:49:00,
2013-04-04 03:54:00,58.9,29.1,29.93,ENE,69,0.0,1.0,32,0.00,,,0.00,0,LWC V2.00 B727,2013-04-04 10:54:00,
2013-04-04 03:59:00,58.8,29.0,29.93,ENE,69,2.0,2.0,32,0.00,,,0.00,0,LWC V2.00 B727,2013-04-04 10:59:00,
2013-04-04 04:04:00,59.1,29.3,29.93,ENE,70,0.0,1.0,32,0.00,,,0.00,0,LWC V2.00 B727,2013-04-04 11:04:00,
2013-04-04 04:09:00,58.7,28.9,29.93,ENE,70,0.0,1.0,32,0.00,,,0.00,0,LWC V2.00 B727,2013-04-04 11:09:00,
2013-04-04 04:14:00,57.7,28.8,29.93,ENE,70,2.0,2.0,33,0.00,,,0.00,0,LWC V2.00 B727,2013-04-04 11:14:00,
2013-04-04 04:19:00,57.2,29.1,29.93,ENE,70,0.0,1.0,34,0.00,,,0.00,0,LWC V2.00 B727,2013-04-04 11:19:00,
2013-04-04 04:24:00,56.9,28.8,29.93,ENE,70,0.0,2.0,34,0.00,,,0.00,0,LWC V2.00 B727,2013-04-04 11:24:00,
2013-04-04 04:29:00,58.0,28.3,29.93,ENE,70,0.0,0.0,32,0.00,,,0.00,0,LWC V2.00 B727,2013-04-04 11:29:00,
2013-04-04 04:34:00,58.0,28.3,29.93,ENE,70,0.0,1.0,32,0.00,,,0.00,0,LWC V2.00 B727,2013-04-04 11:34:00,
2013-04-04 04:39:00,58.2,28.5,29.94,ENE,70,0.0,0.0,32,0.00,,,0.00,0,LWC V2.00 B727,2013-04-04 11:39:00,
2013-04-04 04:44:00,58.7,28.9,29.93,ENE,70,0.0,0.0,32,0.00,,,0.00,0,LWC V2.00 B727,2013-04-04 11:44:00,
2013-04-04 04:49:00,58.9,28.3,29.93,ENE,70,0.0,0.0,31,0.00,,,0.00,0,LWC V2.00 B727,2013-04-04 11:49:00,
2013-04-04 04:54:00,59.1,28.5,29.93,ENE,70,0.0,0.0,31,0.00,,,0.00,0,LWC V2.00 B727,2013-04-04 11:54:00,
2013-04-04 04:59:00,58.9,28.3,29.94,ENE,70,0.0,1.0,31,0.00,,,0.00,0,LWC V2.00 B727,2013-04-04 11:59:00,
2013-04-04 05:04:00,58.7,28.1,29.93,ENE,70,2.0,2.0,31,0.00,,,0.00,0,LWC V2.00 B727,2013-04-04 12:04:00,
2013-04-04 05:09:00,58.3,27.8,29.94,ENE,70,0.0,0.0,31,0.00,,,0.00,0,LWC V2.00 B727,2013-04-04 12:09:00,
2013-04-04 05:14:00,58.8,27.4,29.94,ENE,70,0.0,0.0,30,0.00,,,0.00,0,LWC V2.00 B727,2013-04-04 12:14:00,
2013-04-04 05:19:00,58.9,27.5,29.94,ENE,70,0.0,0.0,30,0.00,,,0.00,0,LWC V2.00 B727,2013-04-04 12:19:00,
2013-04-04 05:24:00,58.5,28.0,29.94,ENE,70,0.0,0.0,31,0.00,,,0.00,0,LWC V2.00 B727,2013-04-04 12:24:00,
2013-04-04 05:29:00,58.6,28.1,29.94,ENE,70,0.0,0.0,31,0.00,,,0.00,0,LWC V2.00 B727,2013-04-04 12:29:00,
2013-04-04 05:34:00,58.9,27.5,29.94,ENE,70,0.0,2.0,30,0.00,,,0.00,0,LWC V2.00 B727,2013-04-04 12:34:00,
2013-04-04 05:39:00,58.8,27.4,29.94,ENE,70,0.0,1.0,30,0.00,,,0.00,0,LWC V2.00 B727,2013-04-04 12:39:00,
2013-04-04 05:44:00,57.9,27.5,29.94,ENE,70,0.0,2.0,31,0.00,,,0.00,0,LWC V2.00 B727,2013-04-04 12:44:00,
2013-04-04 05:49:00,57.5,27.1,29.94,ENE,70,2.0,2.0,31,0.00,,,0.00,0,LWC V2.00 B727,2013-04-04 12:49:00,
2013-04-04 05:54:00,57.5,27.1,29.94,ENE,70,0.0,1.0,31,0.00,,,0.00,0,LWC V2.00 B727,2013-04-04 12:54:00,
2013-04-04 05:59:00,58.2,26.9,29.95,ENE,70,0.0,0.0,30,0.00,,,0.00,5,LWC V2.00 B727,2013-04-04 12:59:00,
2013-04-04 06:04:00,58.9,26.7,29.95,ENE,70,0.0,0.0,29,0.00,,,0.00,9,LWC V2.00 B727,2013-04-04 13:04:00,
2013-04-04 06:09:00,58.2,26.9,29.94,ENE,70,0.0,0.0,30,0.00,,,0.00,7,LWC V2.00 B727,2013-04-04 13:09:00,
2013-04-04 06:14:00,58.2,26.9,29.95,ENE,70,0.0,1.0,30,0.00,,,0.00,9,LWC V2.00 B727,2013-04-04 13:14:00,
2013-04-04 06:19:00,58.1,26.8,29.95,ENE,70,0.0,0.0,30,0.00,,,0.00,14,LWC V2.00 B727,2013-04-04 13:19:00,
2013-04-04 06:24:00,57.5,27.1,29.95,ENE,70,0.0,0.0,31,0.00,,,0.00,21,LWC V2.00 B727,2013-04-04 13:24:00,
2013-04-04 06:29:00,58.1,26.8,29.95,ENE,70,0.0,0.0,30,0.00,,,0.00,28,LWC V2.00 B727,2013-04-04 13:29:00,
2013-04-04 06:34:00,57.6,27.2,29.95,ENE,70,0.0,0.0,31,0.00,,,0.00,35,LWC V2.00 B727,2013-04-04 13:34:00,
2013-04-04 06:39:00,58.0,26.7,29.95,ENE,70,0.0,1.0,30,0.00,,,0.00,42,LWC V2.00 B727,2013-04-04 13:39:00,
2013-04-04 06:44:00,58.5,27.2,29.95,ENE,70,0.0,0.0,30,0.00,,,0.00,46,LWC V2.00 B727,2013-04-04 13:44:00,
2013-04-04 06:49:00,58.4,27.1,29.95,ENE,70,0.0,0.0,30,0.00,,,0.00,51,LWC V2.00 B727,2013-04-04 13:49:00,
2013-04-04 06:54:00,58.3,27.8,29.95,ENE,70,0.0,1.0,31,0.00,,,0.00,58,LWC V2.00 B727,2013-04-04 13:54:00,
2013-04-04 06:59:00,58.4,27.1,29.96,ENE,70,0.0,0.0,30,0.00,,,0.00,120,LWC V2.00 B727,2013-04-04 13:59:00,
2013-04-04 07:04:00,58.5,28.7,29.96,ENE,70,0.0,0.0,32,0.00,,,0.00,114,LWC V2.00 B727,2013-04-04 14:04:00,
2013-04-04 07:09:00,58.4,28.7,29.96,ENE,70,0.0,0.0,32,0.00,,,0.00,104,LWC V2.00 B727,2013-04-04 14:09:00,
2013-04-04 07:14:00,59.1,28.5,29.96,ENE,70,0.0,0.0,31,0.00,,,0.00,125,LWC V2.00 B727,2013-04-04 14:14:00,
2013-04-04 07:19:00,58.6,28.8,29.97,ENE,70,0.0,0.0,32,0.00,,,0.00,183,LWC V2.00 B727,2013-04-04 14:19:00,
2013-04-04 07:24:00,59.0,29.9,29.97,ENE,70,0.0,3.0,33,0.00,,,0.00,211,LWC V2.00 B727,2013-04-04 14:24:00,
2013-04-04 07:29:00,59.9,30.0,29.97,ENE,70,0.0,1.0,32,0.00,,,0.00,188,LWC V2.00 B727,2013-04-04 14:29:00,
2013-04-04 07:34:00,60.3,31.1,29.97,ENE,70,0.0,1.0,33,0.00,,,0.00,171,LWC V2.00 B727,2013-04-04 14:34:00,
2013-04-04 07:39:00,60.8,30.0,29.97,ENE,70,0.0,2.0,31,0.00,,,0.00,241,LWC V2.00 B727,2013-04-04 14:39:00,
2013-04-04 07:44:00,61.5,29.8,29.97,ENE,70,0.0,2.0,30,0.00,,,0.00,250,LWC V2.00 B727,2013-04-04 14:44:00,
2013-04-04 07:49:00,62.7,30.8,29.97,ENE,70,0.0,1.0,30,0.00,,,0.00,281,LWC V2.00 B727,2013-04-04 14:49:00,
2013-04-04 07:54:00,64.4,31.5,29.97,ENE,70,0.0,0.0,29,0.00,,,0.00,343,LWC V2.00 B727,2013-04-04 14:54:00,
2013-04-04 07:59:00,65.3,30.5,29.97,ENE,70,0.0,1.0,27,0.00,,,0.00,362,LWC V2.00 B727,2013-04-04 14:59:00,
2013-04-04 08:04:00,65.6,32.5,29.97,ENE,70,0.0,0.0,29,0.00,,,0.00,392,LWC V2.00 B727,2013-04-04 15:04:00,
2013-04-04 08:09:00,66.3,30.4,29.97,ENE,71,1.0,4.0,26,0.00,,,0.00,388,LWC V2.00 B727,2013-04-04 15:09:00,
2013-04-04 08:14:00,67.0,30.0,29.97,SE,135,3.0,5.0,25,0.00,,,0.00,425,LWC V2.00 B727,2013-04-04 15:14:00,
2013-04-04 08:19:00,67.5,31.4,29.97,SSE,157,3.0,4.0,26,0.00,,,0.00,387,LWC V2.00 B727,2013-04-04 15:19:00,
2013-04-04 08:24:00,68.1,29.9,29.97,SSE,157,2.0,3.0,24,0.00,,,0.00,424,LWC V2.00 B727,2013-04-04 15:24:00,
2013-04-04 08:29:00,68.4,30.2,29.97,SSE,151,2.0,4.0,24,0.00,,,0.00,475,LWC V2.00 B727,2013-04-04 15:29:00,
2013-04-04 08:34:00,69.2,30.9,29.97,SSE,148,3.0,5.0,24,0.00,,,0.00,450,LWC V2.00 B727,2013-04-04 15:34:00,
2013-04-04 08:39:00,69.4,30.0,29.96,SE,142,2.0,4.0,23,0.00,,,0.00,438,LWC V2.00 B727,2013-04-04 15:39:00,
2013-04-04 08:44:00,69.8,30.3,29.96,SE,141,0.0,2.0,23,0.00,,,0.00,366,LWC V2.00 B727,2013-04-04 15:44:00,
2013-04-04 08:49:00,70.0,30.5,29.96,SE,142,0.0,2.0,23,0.00,,,0.00,413,LWC V2.00 B727,2013-04-04 15:49:00,
2013-04-04 08:54:00,70.2,29.6,29.96,SE,142,0.0,2.0,22,0.00,,,0.00,462,LWC V2.00 B727,2013-04-04 15:54:00,
2013-04-04 08:59:00,70.4,28.6,29.96,SE,144,0.0,1.0,21,0.00,,,0.00,489,LWC V2.00 B727,2013-04-04 15:59:00,
2013-04-04 09:04:00,70.8,30.1,29.96,SE,144,0.0,0.0,22,0.00,,,0.00,461,LWC V2.00 B727,2013-04-04 16:04:00,
2013-04-04 09:09:00,71.1,29.2,29.96,SE,144,0.0,1.0,21,0.00,,,0.00,538,LWC V2.00 B727,2013-04-04 16:09:00,
2013-04-04 09:14:00,71.6,28.4,29.96,SE,145,0.0,1.0,20,0.00,,,0.00,561,LWC V2.00 B727,2013-04-04 16:14:00,
2013-04-04 09:19:00,72.2,30.1,29.96,WSW,251,0.0,1.0,21,0.00,,,0.00,490,LWC V2.00 B727,2013-04-04 16:19:00,
2013-04-04 09:24:00,71.9,29.8,29.96,WSW,238,3.0,5.0,21,0.00,,,0.00,512,LWC V2.00 B727,2013-04-04 16:24:00,
2013-04-04 09:29:00,72.2,30.1,29.96,SW,234,3.0,4.0,21,0.00,,,0.00,545,LWC V2.00 B727,2013-04-04 16:29:00,
2013-04-04 09:34:00,72.2,30.1,29.96,SW,234,0.0,3.0,21,0.00,,,0.00,531,LWC V2.00 B727,2013-04-04 16:34:00,
2013-04-04 09:39:00,73.1,29.6,29.96,SW,234,1.0,5.0,20,0.00,,,0.00,740,LWC V2.00 B727,2013-04-04 16:39:00,
2013-04-04 09:44:00,72.6,29.2,29.96,SW,234,1.0,1.0,20,0.00,,,0.00,756,LWC V2.00 B727,2013-04-04 16:44:00,
2013-04-04 09:49:00,73.0,29.6,29.96,SW,231,0.0,2.0,20,0.00,,,0.00,650,LWC V2.00 B727,2013-04-04 16:49:00,
2013-04-04 09:54:00,74.3,30.6,29.95,WNW,300,2.0,4.0,20,0.00,,,0.00,622,LWC V2.00 B727,2013-04-04 16:54:00,
2013-04-04 09:59:00,74.2,29.3,29.95,WNW,300,0.0,1.0,19,0.00,,,0.00,570,LWC V2.00 B727,2013-04-04 16:59:00,
2013-04-04 10:04:00,74.4,30.7,29.96,WNW,299,0.0,2.0,20,0.00,,,0.00,747,LWC V2.00 B727,2013-04-04 17:04:00,
2013-04-04 10:09:00,74.0,29.1,29.95,WNW,298,0.0,3.0,19,0.00,,,0.00,761,LWC V2.00 B727,2013-04-04 17:09:00,
2013-04-04 10:14:00,74.5,28.2,29.95,WNW,297,0.0,3.0,18,0.00,,,0.00,810,LWC V2.00 B727,2013-04-04 17:14:00,
2013-04-04 10:19:00,74.3,28.0,29.95,WNW,297,0.0,1.0,18,0.00,,,0.00,526,LWC V2.00 B727,2013-04-04 17:19:00,
2013-04-04 10:24:00,75.8,29.3,29.95,NNW,345,0.0,1.0,18,0.00,,,0.00,615,LWC V2.00 B727,2013-04-04 17:24:00,
2013-04-04 10:29:00,75.6,27.7,29.95,NNW,345,0.0,1.0,17,0.00,,,0.00,594,LWC V2.00 B727,2013-04-04 17:29:00,
2013-04-04 10:34:00,76.5,28.4,29.95,NNW,329,0.0,4.0,17,0.00,,,0.00,786,LWC V2.00 B727,2013-04-04 17:34:00,
2013-04-04 10:39:00,77.4,27.7,29.95,NNW,329,0.0,4.0,16,0.00,,,0.00,782,LWC V2.00 B727,2013-04-04 17:39:00,
2013-04-04 10:44:00,77.9,28.1,29.94,NNW,329,0.0,1.0,16,0.00,,,0.00,512,LWC V2.00 B727,2013-04-04 17:44:00,
2013-04-04 10:49:00,77.0,28.8,29.94,NNW,329,0.0,2.0,17,0.00,,,0.00,782,LWC V2.00 B727,2013-04-04 17:49:00,
2013-04-04 10:54:00,77.4,30.6,29.94,NNW,329,3.0,4.0,18,0.00,,,0.00,752,LWC V2.00 B727,2013-04-04 17:54:00,
2013-04-04 10:59:00,77.1,25.9,29.94,NNW,329,0.0,4.0,15,0.00,,,0.00,803,LWC V2.00 B727,2013-04-04 17:59:00,
2013-04-04 11:04:00,78.0,26.6,29.93,NNW,329,1.0,1.0,15,0.00,,,0.00,895,LWC V2.00 B727,2013-04-04 18:04:00,
2013-04-04 11:09:00,80.1,29.8,29.93,NNW,329,0.0,1.0,16,0.00,,,0.00,1002,LWC V2.00 B727,2013-04-04 18:09:00,
2013-04-04 11:14:00,78.9,28.9,29.93,NNW,327,0.0,1.0,16,0.00,,,0.00,816,LWC V2.00 B727,2013-04-04 18:14:00,
2013-04-04 11:19:00,80.1,26.6,29.93,West,267,3.0,7.0,14,0.00,,,0.00,752,LWC V2.00 B727,2013-04-04 18:19:00,
2013-04-04 11:24:00,79.0,25.7,29.93,WSW,253,3.0,4.0,14,0.00,,,0.00,772,LWC V2.00 B727,2013-04-04 18:24:00,
2013-04-04 11:29:00,79.0,25.7,29.93,WSW,243,2.0,4.0,14,0.00,,,0.00,882,LWC V2.00 B727,2013-04-04 18:29:00,
2013-04-04 11:34:00,79.4,26.0,29.92,NNE,23,3.0,5.0,14,0.00,,,0.00,724,LWC V2.00 B727,2013-04-04 18:34:00,
2013-04-04 11:39:00,79.3,26.0,29.92,SW,232,3.0,6.0,14,0.00,,,0.00,737,LWC V2.00 B727,2013-04-04 18:39:00,
2013-04-04 11:44:00,81.0,25.5,29.92,SW,221,4.0,5.0,13,0.00,,,0.00,773,LWC V2.00 B727,2013-04-04 18:44:00,
2013-04-04 11:49:00,80.7,27.1,29.92,West,267,0.0,6.0,14,0.00,,,0.00,923,LWC V2.00 B727,2013-04-04 18:49:00,
2013-04-04 11:54:00,81.8,26.1,29.92,WSW,248,8.0,9.0,13,0.00,,,0.00,786,LWC V2.00 B727,2013-04-04 18:54:00,
2013-04-04 11:59:00,81.3,25.8,29.91,SW,221,4.0,7.0,13,0.00,,,0.00,687,LWC V2.00 B727,2013-04-04 18:59:00,
2013-04-04 12:04:00,81.0,25.5,29.91,SW,228,2.0,7.0,13,0.00,,,0.00,633,LWC V2.00 B727,2013-04-04 19:04:00,
2013-04-04 12:09:00,81.2,25.7,29.91,WNW,284,3.0,4.0,13,0.00,,,0.00,889,LWC V2.00 B727,2013-04-04 19:09:00,
2013-04-04 12:14:00,82.4,24.7,29.91,North,355,1.0,4.0,12,0.00,,,0.00,958,LWC V2.00 B727,2013-04-04 19:14:00,
2013-04-04 12:19:00,83.2,23.2,29.90,WSW,254,4.0,4.0,11,0.00,,,0.00,993,LWC V2.00 B727,2013-04-04 19:19:00,
2013-04-04 12:24:00,83.4,23.4,29.90,WSW,258,1.0,3.0,11,0.00,,,0.00,867,LWC V2.00 B727,2013-04-04 19:24:00,
2013-04-04 12:29:00,82.1,22.4,29.90,NNE,23,0.0,7.0,11,0.00,,,0.00,865,LWC V2.00 B727,2013-04-04 19:29:00,
2013-04-04 12:34:00,81.7,24.1,29.89,West,259,3.0,4.0,12,0.00,,,0.00,754,LWC V2.00 B727,2013-04-04 19:34:00,
2013-04-04 12:39:00,81.9,20.0,29.89,West,274,0.0,3.0,10,0.00,,,0.00,548,LWC V2.00 B727,2013-04-04 19:39:00,
2013-04-04 12:44:00,81.2,21.7,29.89,West,273,1.0,1.0,11,0.00,,,0.00,729,LWC V2.00 B727,2013-04-04 19:44:00,
2013-04-04 12:49:00,81.7,22.1,29.89,NNE,24,6.0,6.0,11,0.00,,,0.00,805,LWC V2.00 B727,2013-04-04 19:49:00,
2013-04-04 12:54:00,82.5,22.7,29.89,WNW,301,3.0,5.0,11,0.00,,,0.00,714,LWC V2.00 B727,2013-04-04 19:54:00,
2013-04-04 12:59:00,83.3,21.0,29.89,NE,36,6.0,8.0,10,0.00,,,0.00,784,LWC V2.00 B727,2013-04-04 19:59:00,
2013-04-04 13:04:00,83.5,23.5,29.88,ENE,59,2.0,6.0,11,0.00,,,0.00,693,LWC V2.00 B727,2013-04-04 20:04:00,
2013-04-04 13:09:00,84.1,21.7,29.88,WNW,300,0.0,6.0,10,0.00,,,0.00,642,LWC V2.00 B727,2013-04-04 20:09:00,
2013-04-04 13:14:00,83.6,18.8,29.88,WSW,247,4.0,4.0,9,0.00,,,0.00,561,LWC V2.00 B727,2013-04-04 20:14:00,
2013-04-04 13:19:00,82.7,20.6,29.88,WSW,248,3.0,4.0,10,0.00,,,0.00,554,LWC V2.00 B727,2013-04-04 20:19:00,
2013-04-04 13:24:00,82.3,17.8,29.88,WSW,244,3.0,4.0,9,0.00,,,0.00,584,LWC V2.00 B727,2013-04-04 20:24:00,
2013-04-04 13:29:00,82.3,17.8,29.88,WNW,301,2.0,6.0,9,0.00,,,0.00,575,LWC V2.00 B727,2013-04-04 20:29:00,
2013-04-04 13:34:00,83.2,15.8,29.87,WNW,286,0.0,7.0,8,0.00,,,0.00,568,LWC V2.00 B727,2013-04-04 20:34:00,
2013-04-04 13:39:00,83.9,16.3,29.87,West,272,4.0,8.0,8,0.00,,,0.00,666,LWC V2.00 B727,2013-04-04 20:39:00,
2013-04-04 13:44:00,84.7,13.8,29.87,West,279,0.0,5.0,7,0.00,,,0.00,800,LWC V2.00 B727,2013-04-04 20:44:00,
2013-04-04 13:49:00,85.1,14.1,29.87,WNW,303,3.0,6.0,7,0.00,,,0.00,782,LWC V2.00 B727,2013-04-04 20:49:00,
2013-04-04 13:54:00,84.8,17.0,29.86,West,278,3.0,6.0,8,0.00,,,0.00,809,LWC V2.00 B727,2013-04-04 20:54:00,
2013-04-04 13:59:00,85.7,14.6,29.86,North,350,0.0,5.0,7,0.00,,,0.00,722,LWC V2.00 B727,2013-04-04 20:59:00,
2013-04-04 14:04:00,84.8,17.0,29.86,NNW,346,3.0,3.0,8,0.00,,,0.00,784,LWC V2.00 B727,2013-04-04 21:04:00,
2013-04-04 14:09:00,86.0,14.8,29.86,West,281,2.0,5.0,7,0.00,,,0.00,784,LWC V2.00 B727,2013-04-04 21:09:00,
2013-04-04 14:14:00,85.1,14.1,29.85,West,281,0.0,0.0,7,0.00,,,0.00,661,LWC V2.00 B727,2013-04-04 21:14:00,
2013-04-04 14:19:00,83.7,13.1,29.85,WNW,300,2.0,3.0,7,0.00,,,0.00,570,LWC V2.00 B727,2013-04-04 21:19:00,
2013-04-04 14:24:00,84.9,14.0,29.84,WSW,253,0.0,7.0,7,0.00,,,0.00,679,LWC V2.00 B727,2013-04-04 21:24:00,
2013-04-04 14:29:00,85.6,14.5,29.84,SW,236,0.0,5.0,7,0.00,,,0.00,705,LWC V2.00 B727,2013-04-04 21:29:00,
2013-04-04 14:34:00,85.0,10.6,29.84,West,265,0.0,1.0,6,0.00,,,0.00,624,LWC V2.00 B727,2013-04-04 21:34:00,
2013-04-04 14:39:00,84.9,10.5,29.84,SSW,200,0.0,3.0,6,0.00,,,0.00,461,LWC V2.00 B727,2013-04-04 21:39:00,
2013-04-04 14:44:00,84.9,10.5,29.83,NNE,23,5.0,5.0,6,0.00,,,0.00,515,LWC V2.00 B727,2013-04-04 21:44:00,
2013-04-04 14:49:00,86.2,11.4,29.83,WSW,254,2.0,5.0,6,0.00,,,0.00,916,LWC V2.00 B727,2013-04-04 21:49:00,
2013-04-04 14:54:00,86.4,11.6,29.83,SW,223,7.0,11.0,6,0.00,,,0.00,680,LWC V2.00 B727,2013-04-04 21:54:00,
2013-04-04 14:59:00,85.6,11.0,29.83,NW,315,1.0,6.0,6,0.00,,,0.00,663,LWC V2.00 B727,2013-04-04 21:59:00,
2013-04-04 15:04:00,86.0,11.3,29.83,West,270,2.0,12.0,6,0.00,,,0.00,626,LWC V2.00 B727,2013-04-04 22:04:00,
2013-04-04 15:09:00,85.9,11.2,29.83,NW,304,5.0,5.0,6,0.00,,,0.00,761,LWC V2.00 B727,2013-04-04 22:09:00,
2013-04-04 15:14:00,86.9,11.9,29.82,West,263,6.0,8.0,6,0.00,,,0.00,807,LWC V2.00 B727,2013-04-04 22:14:00,
2013-04-04 15:19:00,87.1,12.1,29.82,SW,227,4.0,7.0,6,0.00,,,0.00,673,LWC V2.00 B727,2013-04-04 22:19:00,
2013-04-04 15:24:00,86.0,11.3,29.82,WNW,296,3.0,5.0,6,0.00,,,0.00,529,LWC V2.00 B727,2013-04-04 22:24:00,
2013-04-04 15:29:00,85.7,11.1,29.82,SSW,208,6.0,14.0,6,0.00,,,0.00,461,LWC V2.00 B727,2013-04-04 22:29:00,
2013-04-04 15:34:00,85.6,11.0,29.82,SW,222,2.0,9.0,6,0.00,,,0.00,519,LWC V2.00 B727,2013-04-04 22:34:00,
2013-04-04 15:39:00,85.9,11.2,29.81,WSW,240,3.0,9.0,6,0.00,,,0.00,527,LWC V2.00 B727,2013-04-04 22:39:00,
2013-04-04 15:44:00,85.5,10.9,29.81,SW,220,6.0,9.0,6,0.00,,,0.00,640,LWC V2.00 B727,2013-04-04 22:44:00,
2013-04-04 15:49:00,86.3,11.5,29.81,SSW,193,2.0,7.0,6,0.00,,,0.00,624,LWC V2.00 B727,2013-04-04 22:49:00,
2013-04-04 15:54:00,86.8,11.9,29.81,WSW,254,5.0,10.0,6,0.00,,,0.00,573,LWC V2.00 B727,2013-04-04 22:54:00,
2013-04-04 15:59:00,86.0,7.2,29.81,SW,232,6.0,8.0,5,0.00,,,0.00,533,LWC V2.00 B727,2013-04-04 22:59:00,
2013-04-04 16:04:00,85.7,11.1,29.81,SW,236,2.0,7.0,6,0.00,,,0.00,371,LWC V2.00 B727,2013-04-04 23:04:00,
2013-04-04 16:09:00,85.0,10.6,29.80,SW,230,3.0,7.0,6,0.00,,,0.00,213,LWC V2.00 B727,2013-04-04 23:09:00,
2013-04-04 16:14:00,84.3,10.1,29.80,SW,218,8.0,8.0,6,0.00,,,0.00,199,LWC V2.00 B727,2013-04-04 23:14:00,
2013-04-04 16:19:00,84.1,5.9,29.80,South,186,0.0,6.0,5,0.00,,,0.00,200,LWC V2.00 B727,2013-04-04 23:19:00,
2013-04-04 16:24:00,84.0,9.9,29.80,South,190,0.0,1.0,6,0.00,,,0.00,223,LWC V2.00 B727,2013-04-04 23:24:00,
2013-04-04 16:29:00,83.9,5.8,29.80,SW,223,1.0,7.0,5,0.00,,,0.00,236,LWC V2.00 B727,2013-04-04 23:29:00,
2013-04-04 16:34:00,83.5,5.5,29.80,SSW,197,1.0,2.0,5,0.00,,,0.00,225,LWC V2.00 B727,2013-04-04 23:34:00,
2013-04-04 16:39:00,83.5,9.5,29.80,WSW,257,2.0,4.0,6,0.00,,,0.00,204,LWC V2.00 B727,2013-04-04 23:39:00,
2013-04-04 16:44:00,83.5,9.5,29.80,SW,229,2.0,5.0,6,0.00,,,0.00,195,LWC V2.00 B727,2013-04-04 23:44:00,
2013-04-04 16:49:00,83.7,9.7,29.80,SW,236,2.0,8.0,6,0.00,,,0.00,192,LWC V2.00 B727,2013-04-04 23:49:00,
2013-04-04 16:54:00,83.5,9.5,29.80,SW,225,2.0,7.0,6,0.00,,,0.00,183,LWC V2.00 B727,2013-04-04 23:54:00,
2013-04-04 16:59:00,83.4,9.4,29.80,SW,236,0.0,4.0,6,0.00,,,0.00,178,LWC V2.00 B727,2013-04-04 23:59:00,
2013-04-04 17:04:00,83.3,9.4,29.80,WSW,238,0.0,1.0,6,0.00,,,0.00,158,LWC V2.00 B727,2013-04-05 00:04:00,
2013-04-04 17:09:00,83.1,5.2,29.80,SSW,211,5.0,5.0,5,0.00,,,0.00,142,LWC V2.00 B727,2013-04-05 00:09:00,
2013-04-04 17:14:00,82.9,5.1,29.80,SW,229,3.0,6.0,5,0.00,,,0.00,130,LWC V2.00 B727,2013-04-05 00:14:00,
2013-04-04 17:19:00,82.7,8.9,29.80,SW,223,0.0,4.0,6,0.00,,,0.00,120,LWC V2.00 B727,2013-04-05 00:19:00,
2013-04-04 17:24:00,82.6,8.9,29.80,SW,223,1.0,4.0,6,0.00,,,0.00,111,LWC V2.00 B727,2013-04-05 00:24:00,
2013-04-04 17:29:00,82.5,8.8,29.80,WSW,240,0.0,2.0,6,0.00,,,0.00,98,LWC V2.00 B727,2013-04-05 00:29:00,
2013-04-04 17:34:00,82.3,8.7,29.80,WSW,239,3.0,3.0,6,0.00,,,0.00,86,LWC V2.00 B727,2013-04-05 00:34:00,
2013-04-04 17:39:00,82.1,8.5,29.80,SW,231,2.0,4.0,6,0.00,,,0.00,79,LWC V2.00 B727,2013-04-05 00:39:00,
2013-04-04 17:44:00,81.9,8.4,29.80,SW,226,0.0,1.0,6,0.00,,,0.00,72,LWC V2.00 B727,2013-04-05 00:44:00,
2013-04-04 17:49:00,81.6,8.2,29.80,SW,225,0.0,4.0,6,0.00,,,0.00,62,LWC V2.00 B727,2013-04-05 00:49:00,
2013-04-04 17:54:00,81.4,11.4,29.79,SW,224,0.0,1.0,7,0.00,,,0.00,51,LWC V2.00 B727,2013-04-05 00:54:00,
2013-04-04 17:59:00,81.2,11.3,29.79,SW,229,1.0,6.0,7,0.00,,,0.00,46,LWC V2.00 B727,2013-04-05 00:59:00,
2013-04-04 18:04:00,80.9,11.1,29.79,WSW,240,3.0,7.0,7,0.00,,,0.00,39,LWC V2.00 B727,2013-04-05 01:04:00,
2013-04-04 18:09:00,80.6,10.9,29.80,WSW,242,0.0,5.0,7,0.00,,,0.00,32,LWC V2.00 B727,2013-04-05 01:09:00,
2013-04-04 18:14:00,80.3,10.6,29.79,WSW,257,1.0,6.0,7,0.00,,,0.00,26,LWC V2.00 B727,2013-04-05 01:14:00,
2013-04-04 18:19:00,80.0,10.4,29.80,WSW,255,0.0,1.0,7,0.00,,,0.00,21,LWC V2.00 B727,2013-04-05 01:19:00,
2013-04-04 18:24:00,79.5,10.1,29.80,West,263,0.0,1.0,7,0.00,,,0.00,14,LWC V2.00 B727,2013-04-05 01:24:00,
2013-04-04 18:29:00,79.2,12.8,29.80,SW,219,0.0,3.0,8,0.00,,,0.00,11,LWC V2.00 B727,2013-04-05 01:29:00,
2013-04-04 18:34:00,78.7,12.5,29.80,SW,219,0.0,1.0,8,0.00,,,0.00,7,LWC V2.00 B727,2013-04-05 01:34:00,
2013-04-04 18:39:00,78.1,14.7,29.80,SW,219,0.0,0.0,9,0.00,,,0.00,0,LWC V2.00 B727,2013-04-05 01:39:00,
2013-04-04 18:44:00,77.8,14.5,29.81,SW,219,0.0,0.0,9,0.00,,,0.00,0,LWC V2.00 B727,2013-04-05 01:44:00,
2013-04-04 18:49:00,77.4,14.2,29.81,SW,220,0.0,1.0,9,0.00,,,0.00,0,LWC V2.00 B727,2013-04-05 01:49:00,
2013-04-04 18:54:00,77.1,18.5,29.81,SW,221,0.0,0.0,11,0.00,,,0.00,0,LWC V2.00 B727,2013-04-05 01:54:00,
2013-04-04 18:59:00,76.4,18.0,29.81,SW,221,0.0,0.0,11,0.00,,,0.00,0,LWC V2.00 B727,2013-04-05 01:59:00,
2013-04-04 19:04:00,75.8,19.6,29.81,SW,223,0.0,0.0,12,0.00,,,0.00,0,LWC V2.00 B727,2013-04-05 02:04:00,
2013-04-04 19:09:00,75.5,19.3,29.82,SW,224,0.0,1.0,12,0.00,,,0.00,0,LWC V2.00 B727,2013-04-05 02:09:00,
2013-04-04 19:14:00,75.3,19.2,29.82,East,96,1.0,4.0,12,0.00,,,0.00,0,LWC V2.00 B727,2013-04-05 02:14:00,
2013-04-04 19:19:00,75.2,19.1,29.82,East,96,0.0,0.0,12,0.00,,,0.00,0,LWC V2.00 B727,2013-04-05 02:19:00,
2013-04-04 19:24:00,74.9,18.9,29.82,East,80,1.0,5.0,12,0.00,,,0.00,0,LWC V2.00 B727,2013-04-05 02:24:00,
2013-04-04 19:29:00,74.9,20.7,29.83,East,82,3.0,3.0,13,0.00,,,0.00,0,LWC V2.00 B727,2013-04-05 02:29:00,
2013-04-04 19:34:00,75.1,20.9,29.83,NE,47,0.0,0.0,13,0.00,,,0.00,0,LWC V2.00 B727,2013-04-05 02:34:00,
2013-04-04 19:39:00,74.7,20.6,29.83,NE,46,1.0,1.0,13,0.00,,,0.00,0,LWC V2.00 B727,2013-04-05 02:39:00,
2013-04-04 19:44:00,74.7,22.3,29.83,NE,40,2.0,6.0,14,0.00,,,0.00,0,LWC V2.00 B727,2013-04-05 02:44:00,
2013-04-04 19:49:00,74.5,22.2,29.83,NNE,20,4.0,5.0,14,0.00,,,0.00,0,LWC V2.00 B727,2013-04-05 02:49:00,
2013-04-04 19:54:00,74.7,22.3,29.83,NNE,14,0.0,0.0,14,0.00,,,0.00,0,LWC V2.00 B727,2013-04-05 02:54:00,
2013-04-04 19:59:00,74.1,21.9,29.83,NNE,14,1.0,1.0,14,0.00,,,0.00,0,LWC V2.00 B727,2013-04-05 02:59:00,
2013-04-04 20:04:00,73.4,22.9,29.83,NNE,14,1.0,3.0,15,0.00,,,0.00,0,LWC V2.00 B727,2013-04-05 03:04:00,
2013-04-04 20:09:00,73.2,22.8,29.83,NNE,15,2.0,2.0,15,0.00,,,0.00,0,LWC V2.00 B727,2013-04-05 03:09:00,
2013-04-04 20:14:00,73.2,22.8,29.83,NNE,15,3.0,4.0,15,0.00,,,0.00,0,LWC V2.00 B727,2013-04-05 03:14:00,
2013-04-04 20:19:00,73.3,22.9,29.83,NNE,26,2.0,3.0,15,0.00,,,0.00,0,LWC V2.00 B727,2013-04-05 03:19:00,
2013-04-04 20:24:00,73.5,23.0,29.84,NNE,26,0.0,3.0,15,0.00,,,0.00,0,LWC V2.00 B727,2013-04-05 03:24:00,
2013-04-04 20:29:00,72.6,22.3,29.84,NNE,30,0.0,0.0,15,0.00,,,0.00,0,LWC V2.00 B727,2013-04-05 03:29:00,
2013-04-04 20:34:00,71.7,23.1,29.84,NNE,30,1.0,4.0,16,0.00,,,0.00,0,LWC V2.00 B727,2013-04-05 03:34:00,
2013-04-04 20:39:00,71.6,23.0,29.84,NNE,30,0.0,3.0,16,0.00,,,0.00,0,LWC V2.00 B727,2013-04-05 03:39:00,
2013-04-04 20:44:00,71.8,23.2,29.84,NNE,30,2.0,2.0,16,0.00,,,0.00,0,LWC V2.00 B727,2013-04-05 03:44:00,
2013-04-04 20:49:00,71.7,23.1,29.85,NNE,30,0.0,0.0,16,0.00,,,0.00,0,LWC V2.00 B727,2013-04-05 03:49:00,
2013-04-04 20:54:00,71.3,22.8,29.85,NNE,30,1.0,1.0,16,0.00,,,0.00,0,LWC V2.00 B727,2013-04-05 03:54:00,
2013-04-04 20:59:00,71.4,22.9,29.85,NNE,30,0.0,1.0,16,0.00,,,0.00,0,LWC V2.00 B727,2013-04-05 03:59:00,
2013-04-04 21:00:00,71.5,23.0,29.85,NNE,30,0.0,1.0,16,0.00,,,0.00,0,LWC V2.00 B727,2013-04-05 04:00:00,
2013-04-04 21:01:00,71.6,23.0,29.85,NNE,30,0.0,1.0,16,0.00,,,0.00,0,LWC V2.00 B727,2013-04-05 04:01:00,
2013-04-04 21:04:00,71.8,23.2,29.85,NNE,30,2.0,4.0,16,0.00,,,0.00,0,LWC V2.00 B727,2013-04-05 04:04:00,
2013-04-04 21:09:00,71.5,23.0,29.84,NNE,32,2.0,4.0,16,0.00,,,0.00,0,LWC V2.00 B727,2013-04-05 04:09:00,
2013-04-04 21:14:00,71.1,24.1,29.85,NE,34,2.0,3.0,17,0.00,,,0.00,0,LWC V2.00 B727,2013-04-05 04:14:00,
2013-04-04 21:19:00,70.3,24.8,29.85,NE,55,4.0,5.0,18,0.00,,,0.00,0,LWC V2.00 B727,2013-04-05 04:19:00,
2013-04-04 21:24:00,69.6,24.2,29.84,ENE,57,0.0,5.0,18,0.00,,,0.00,0,LWC V2.00 B727,2013-04-05 04:24:00,
2013-04-04 21:29:00,69.1,25.1,29.85,ENE,57,2.0,3.0,19,0.00,,,0.00,0,LWC V2.00 B727,2013-04-05 04:29:00,
2013-04-04 21:34:00,69.1,25.1,29.85,ENE,57,2.0,4.0,19,0.00,,,0.00,0,LWC V2.00 B727,2013-04-05 04:34:00,
2013-04-04 21:39:00,69.1,25.1,29.85,ENE,57,2.0,2.0,19,0.00,,,0.00,0,LWC V2.00 B727,2013-04-05 04:39:00,
2013-04-04 21:44:00,69.2,23.9,29.85,ENE,57,1.0,1.0,18,0.00,,,0.00,0,LWC V2.00 B727,2013-04-05 04:44:00,
2013-04-04 21:49:00,69.4,24.1,29.85,ENE,57,0.0,0.0,18,0.00,,,0.00,0,LWC V2.00 B727,2013-04-05 04:49:00,
2013-04-04 21:54:00,69.7,24.3,29.85,ENE,57,2.0,3.0,18,0.00,,,0.00,0,LWC V2.00 B727,2013-04-05 04:54:00,
2013-04-04 21:59:00,69.8,24.4,29.85,ENE,57,1.0,2.0,18,0.00,,,0.00,0,LWC V2.00 B727,2013-04-05 04:59:00,
2013-04-04 22:04:00,69.8,23.0,29.84,ENE,57,0.0,1.0,17,0.00,,,0.00,0,LWC V2.00 B727,2013-04-05 05:04:00,
2013-04-04 22:09:00,70.0,23.2,29.85,ENE,57,0.0,0.0,17,0.00,,,0.00,0,LWC V2.00 B727,2013-04-05 05:09:00,
2013-04-04 22:14:00,69.2,23.9,29.85,ENE,57,0.0,0.0,18,0.00,,,0.00,0,LWC V2.00 B727,2013-04-05 05:14:00,
2013-04-04 22:19:00,69.1,23.8,29.84,ENE,57,0.0,0.0,18,0.00,,,0.00,0,LWC V2.00 B727,2013-04-05 05:19:00,
2013-04-04 22:24:00,69.1,23.8,29.85,ENE,57,3.0,3.0,18,0.00,,,0.00,0,LWC V2.00 B727,2013-04-05 05:24:00,
2013-04-04 22:29:00,68.8,24.9,29.84,ENE,57,1.0,4.0,19,0.00,,,0.00,0,LWC V2.00 B727,2013-04-05 05:29:00,
2013-04-04 22:34:00,68.5,24.6,29.84,ENE,57,3.0,3.0,19,0.00,,,0.00,0,LWC V2.00 B727,2013-04-05 05:34:00,
2013-04-04 22:39:00,68.5,24.6,29.84,ENE,57,3.0,4.0,19,0.00,,,0.00,0,LWC V2.00 B727,2013-04-05 05:39:00,
2013-04-04 22:44:00,68.8,23.6,29.84,ENE,57,1.0,3.0,18,0.00,,,0.00,0,LWC V2.00 B727,2013-04-05 05:44:00,
2013-04-04 22:49:00,68.9,23.7,29.84,ENE,57,1.0,3.0,18,0.00,,,0.00,0,LWC V2.00 B727,2013-04-05 05:49:00,
2013-04-04 22:54:00,69.0,23.7,29.84,ENE,57,1.0,4.0,18,0.00,,,0.00,0,LWC V2.00 B727,2013-04-05 05:54:00,
2013-04-04 22:59:00,69.0,23.7,29.84,ENE,57,1.0,2.0,18,0.00,,,0.00,0,LWC V2.00 B727,2013-04-05 05:59:00,
2013-04-04 23:04:00,68.8,23.6,29.84,ENE,57,1.0,4.0,18,0.00,,,0.00,0,LWC V2.00 B727,2013-04-05 06:04:00,
2013-04-04 23:09:00,68.8,23.6,29.84,ENE,57,2.0,2.0,18,0.00,,,0.00,0,LWC V2.00 B727,2013-04-05 06:09:00,
2013-04-04 23:14:00,68.9,23.7,29.84,ENE,57,1.0,2.0,18,0.00,,,0.00,0,LWC V2.00 B727,2013-04-05 06:14:00,
2013-04-04 23:19:00,68.9,23.7,29.84,ENE,57,2.0,3.0,18,0.00,,,0.00,0,LWC V2.00 B727,2013-04-05 06:19:00,
2013-04-04 23:24:00,68.8,23.6,29.84,ENE,57,0.0,3.0,18,0.00,,,0.00,0,LWC V2.00 B727,2013-04-05 06:24:00,
2013-04-04 23:29:00,68.4,24.5,29.84,ENE,57,3.0,3.0,19,0.00,,,0.00,0,LWC V2.00 B727,2013-04-05 06:29:00,
2013-04-04 23:34:00,68.3,24.5,29.84,ENE,57,0.0,1.0,19,0.00,,,0.00,0,LWC V2.00 B727,2013-04-05 06:34:00,
2013-04-04 23:39:00,68.3,23.2,29.84,ENE,57,0.0,2.0,18,0.00,,,0.00,0,LWC V2.00 B727,2013-04-05 06:39:00,
2013-04-04 23:44:00,68.3,23.2,29.84,ENE,57,0.0,1.0,18,0.00,,,0.00,0,LWC V2.00 B727,2013-04-05 06:44:00,
2013-04-04 23:49:00,68.3,23.2,29.84,ENE,57,0.0,0.0,18,0.00,,,0.00,0,LWC V2.00 B727,2013-04-05 06:49:00,
2013-04-04 23:54:00,68.5,23.3,29.84,ENE,57,0.0,1.0,18,0.00,,,0.00,0,LWC V2.00 B727,2013-04-05 06:54:00,
2013-04-04 23:59:00,68.3,23.2,29.84,ENE,57,2.0,2.0,18,0.00,,,0.00,0,LWC V2.00 B727,2013-04-05 06:59:00,